createdAt,value
2024-01-06T00:02:12.786Z,100.00
2024-01-06T00:04:40.568Z,100.00
2024-01-06T00:07:08.210Z,100.00
2024-01-06T00:09:35.917Z,100.00
2024-01-06T00:12:04.148Z,100.00
2024-01-06T00:14:31.794Z,100.00
2024-01-06T00:16:59.394Z,100.00
2024-01-06T00:19:28.562Z,100.00
2024-01-06T00:21:56.330Z,100.00
2024-01-06T00:24:24.028Z,100.00
2024-01-06T00:26:51.763Z,100.00
2024-01-06T00:29:19.420Z,100.00
2024-01-06T00:31:47.232Z,100.00
2024-01-06T00:34:15.020Z,100.00
2024-01-06T00:36:44.045Z,100.00
2024-01-06T00:39:14.013Z,100.00
2024-01-06T00:41:41.736Z,100.00
2024-01-06T00:44:09.381Z,100.00
2024-01-06T00:46:36.976Z,100.00
2024-01-06T00:49:05.078Z,100.00
2024-01-06T00:51:32.953Z,100.00
2024-01-06T00:54:04.636Z,100.00
2024-01-06T00:56:32.380Z,100.00
2024-01-06T00:59:00.066Z,100.00
2024-01-06T01:01:27.770Z,100.00
2024-01-06T01:03:55.684Z,100.00
2024-01-06T01:06:25.872Z,100.00
2024-01-06T01:08:53.591Z,100.00
2024-01-06T01:11:26.266Z,100.00
2024-01-06T01:13:54.046Z,100.00
2024-01-06T01:16:22.228Z,100.00
2024-01-06T01:18:50.600Z,100.00
2024-01-06T01:21:19.511Z,100.00
2024-01-06T01:23:47.549Z,100.00
2024-01-06T01:26:16.174Z,100.00
2024-01-06T01:28:45.782Z,100.00
2024-01-06T01:31:15.441Z,99.59
2024-01-06T01:33:43.462Z,99.01
2024-01-06T01:36:11.285Z,97.91
2024-01-06T01:38:38.908Z,98.42
2024-01-06T01:41:06.539Z,98.12
2024-01-06T01:43:34.294Z,97.78
2024-01-06T01:46:03.958Z,96.71
2024-01-06T01:48:35.113Z,96.49
2024-01-06T01:51:05.543Z,96.99
2024-01-06T01:53:34.576Z,97.06
2024-01-06T01:56:06.266Z,97.19
2024-01-06T01:58:34.052Z,96.37
2024-01-06T02:01:04.262Z,96.32
2024-01-06T02:03:35.240Z,96.43
2024-01-06T02:06:04.110Z,96.03
2024-01-06T02:08:31.828Z,95.53
2024-01-06T02:10:59.489Z,94.33
2024-01-06T02:13:35.267Z,93.72
2024-01-06T02:16:06.576Z,93.97
2024-01-06T02:18:35.434Z,93.47
2024-01-06T02:21:05.699Z,93.98
2024-01-06T02:23:38.279Z,94.94
2024-01-06T02:26:08.054Z,94.90
2024-01-06T02:28:37.803Z,94.63
2024-01-06T02:31:05.774Z,94.94
2024-01-06T02:33:33.963Z,94.42
2024-01-06T02:36:01.677Z,94.46
2024-01-06T02:38:29.532Z,93.74
2024-01-06T02:40:58.619Z,94.15
2024-01-06T02:43:26.331Z,94.12
2024-01-06T02:45:54.032Z,94.51
2024-01-06T02:48:21.920Z,94.23
2024-01-06T02:50:49.724Z,93.86
2024-01-06T02:53:17.472Z,93.72
2024-01-06T02:55:46.487Z,93.66
2024-01-06T02:58:15.469Z,93.22
2024-01-06T03:00:43.215Z,92.84
2024-01-06T03:03:11.024Z,91.78
2024-01-06T03:05:38.989Z,92.01
2024-01-06T03:08:07.480Z,92.28
2024-01-06T03:10:37.413Z,92.62
2024-01-06T03:13:05.353Z,91.99
2024-01-06T03:15:34.457Z,91.05
2024-01-06T03:18:02.114Z,91.52
2024-01-06T03:20:29.848Z,91.70
2024-01-06T03:22:57.502Z,90.37
2024-01-06T03:25:25.059Z,90.58
2024-01-06T03:27:52.752Z,91.11
2024-01-06T03:30:20.674Z,90.33
2024-01-06T03:32:53.691Z,90.41
2024-01-06T03:35:21.426Z,90.97
2024-01-06T03:37:49.103Z,90.06
2024-01-06T03:40:16.858Z,90.22
2024-01-06T03:42:44.617Z,90.95
2024-01-06T03:45:12.418Z,91.65
2024-01-06T03:47:40.202Z,91.11
2024-01-06T03:50:09.969Z,92.29
2024-01-06T03:52:39.623Z,92.55
2024-01-06T03:55:08.196Z,92.70
2024-01-06T03:57:35.810Z,92.72
2024-01-06T04:00:03.925Z,93.01
2024-01-06T04:02:31.527Z,92.82
2024-01-06T04:04:59.174Z,93.32
2024-01-06T04:07:28.208Z,92.54
2024-01-06T04:09:56.038Z,92.10
2024-01-06T04:12:23.848Z,91.66
2024-01-06T04:14:51.714Z,91.47
2024-01-06T04:17:19.451Z,91.24
2024-01-06T04:19:47.244Z,91.70
2024-01-06T04:22:15.277Z,91.71
2024-01-06T04:24:44.416Z,90.95
2024-01-06T04:27:13.453Z,91.14
2024-01-06T04:29:41.542Z,91.43
2024-01-06T04:32:09.913Z,91.67
2024-01-06T04:34:37.713Z,90.52
2024-01-06T04:37:05.648Z,91.44
2024-01-06T04:39:35.942Z,91.27
2024-01-06T04:42:07.280Z,91.48
2024-01-06T04:44:35.476Z,91.79
2024-01-06T04:47:03.310Z,91.51
2024-01-06T04:49:35.018Z,91.26
2024-01-06T04:52:03.001Z,91.94
2024-01-06T04:54:30.781Z,91.42
2024-01-06T04:56:58.535Z,92.11
2024-01-06T04:59:27.740Z,90.18
2024-01-06T05:01:57.964Z,91.23
2024-01-06T05:04:25.765Z,90.39
2024-01-06T05:06:54.439Z,91.18
2024-01-06T05:09:22.217Z,92.19
2024-01-06T05:11:49.915Z,92.66
2024-01-06T05:14:17.578Z,92.51
2024-01-06T05:16:47.709Z,92.91
2024-01-06T05:19:20.611Z,93.58
2024-01-06T05:21:49.123Z,93.70
2024-01-06T05:24:16.812Z,94.02
2024-01-06T05:26:44.562Z,93.53
2024-01-06T05:29:12.271Z,92.70
2024-01-06T05:31:40.017Z,93.43
2024-01-06T05:34:09.133Z,93.08
2024-01-06T05:36:37.365Z,93.35
2024-01-06T05:39:05.587Z,93.94
2024-01-06T05:41:39.565Z,93.72
2024-01-06T05:44:07.776Z,94.42
2024-01-06T05:46:36.819Z,94.95
2024-01-06T05:49:05.714Z,95.52
2024-01-06T05:51:35.318Z,95.24
2024-01-06T05:54:03.854Z,95.12
2024-01-06T05:56:31.635Z,95.86
2024-01-06T05:58:59.249Z,96.14
2024-01-06T06:01:26.921Z,95.78
2024-01-06T06:03:54.596Z,94.99
2024-01-06T06:06:23.609Z,95.85
2024-01-06T06:08:52.676Z,96.15
2024-01-06T06:11:20.403Z,95.30
2024-01-06T06:13:48.105Z,95.22
2024-01-06T06:16:16.938Z,94.45
2024-01-06T06:18:44.996Z,94.45
2024-01-06T06:21:12.693Z,95.60
2024-01-06T06:23:40.409Z,95.06
2024-01-06T06:26:09.954Z,95.32
2024-01-06T06:28:37.864Z,94.66
2024-01-06T06:31:05.757Z,94.54
2024-01-06T06:33:34.576Z,94.79
2024-01-06T06:36:02.927Z,95.16
2024-01-06T06:38:30.637Z,95.32
2024-01-06T06:40:58.581Z,94.37
2024-01-06T06:43:27.610Z,94.72
2024-01-06T06:45:56.639Z,94.18
2024-01-06T06:48:24.470Z,93.69
2024-01-06T06:50:52.044Z,94.47
2024-01-06T06:53:19.682Z,94.24
2024-01-06T06:55:48.147Z,94.33
2024-01-06T06:58:15.912Z,93.44
2024-01-06T07:00:45.174Z,93.79
2024-01-06T07:03:12.894Z,94.48
2024-01-06T07:05:40.622Z,94.28
2024-01-06T07:08:08.779Z,94.69
2024-01-06T07:10:36.675Z,94.39
2024-01-06T07:13:04.648Z,95.65
2024-01-06T07:15:32.351Z,95.50
2024-01-06T07:18:01.585Z,96.21
2024-01-06T07:20:29.448Z,96.03
2024-01-06T07:22:57.194Z,97.10
2024-01-06T07:25:24.793Z,96.40
2024-01-06T07:27:55.343Z,97.13
2024-01-06T07:30:23.579Z,97.04
2024-01-06T07:32:53.141Z,96.06
2024-01-06T07:35:22.519Z,95.95
2024-01-06T07:37:50.332Z,96.29
2024-01-06T07:40:18.400Z,96.17
2024-01-06T07:42:46.263Z,96.26
2024-01-06T07:45:14.630Z,96.92
2024-01-06T07:47:43.099Z,96.88
2024-01-06T07:50:11.553Z,96.46
2024-01-06T07:52:40.564Z,96.08
2024-01-06T07:55:09.072Z,96.19
2024-01-06T07:57:36.813Z,96.21
2024-01-06T08:00:06.545Z,95.69
2024-01-06T08:02:35.659Z,95.08
2024-01-06T08:05:03.928Z,94.62
2024-01-06T08:07:31.629Z,94.65
2024-01-06T08:10:01.043Z,93.14
2024-01-06T08:12:28.877Z,92.42
2024-01-06T08:14:56.575Z,92.54
2024-01-06T08:17:24.236Z,92.30
2024-01-06T08:19:52.187Z,92.47
2024-01-06T08:22:19.864Z,95.12
2024-01-06T08:24:48.354Z,95.90
2024-01-06T08:27:17.464Z,95.68
2024-01-06T08:29:45.350Z,96.75
2024-01-06T08:32:17.158Z,96.39
2024-01-06T08:34:46.488Z,96.69
2024-01-06T08:37:14.321Z,97.30
2024-01-06T08:39:42.218Z,97.68
2024-01-06T08:42:10.128Z,97.36
2024-01-06T08:44:39.251Z,96.67
2024-01-06T08:47:07.588Z,96.12
2024-01-06T08:49:35.494Z,94.99
2024-01-06T08:52:03.403Z,95.09
2024-01-06T08:54:31.123Z,94.96
2024-01-06T08:56:59.232Z,94.87
2024-01-06T08:59:26.903Z,95.59
2024-01-06T09:01:57.013Z,92.62
2024-01-06T09:04:24.827Z,93.42
2024-01-06T09:06:52.903Z,93.00
2024-01-06T09:09:20.747Z,91.66
2024-01-06T09:11:48.427Z,91.96
2024-01-06T09:14:16.201Z,92.54
2024-01-06T09:16:43.958Z,92.23
2024-01-06T09:19:13.556Z,93.39
2024-01-06T09:21:42.514Z,93.57
2024-01-06T09:24:10.181Z,95.44
2024-01-06T09:26:37.774Z,95.12
2024-01-06T09:29:05.577Z,95.93
2024-01-06T09:31:33.972Z,96.96
2024-01-06T09:34:03.645Z,96.64
2024-01-06T09:36:33.380Z,96.90
2024-01-06T09:39:01.027Z,97.28
2024-01-06T09:41:28.880Z,97.33
2024-01-06T09:43:56.499Z,97.66
2024-01-06T09:46:27.212Z,96.42
2024-01-06T09:48:56.386Z,95.87
2024-01-06T09:51:25.423Z,96.31
2024-01-06T09:54:00.515Z,95.88
2024-01-06T09:56:29.860Z,95.27
2024-01-06T09:58:58.072Z,96.31
2024-01-06T10:01:26.255Z,96.12
2024-01-06T10:03:54.222Z,95.98
2024-01-06T10:06:22.632Z,95.13
2024-01-06T10:08:51.801Z,94.61
2024-01-06T10:11:22.316Z,94.80
2024-01-06T10:13:51.563Z,94.38
2024-01-06T10:16:19.396Z,93.80
2024-01-06T10:18:51.450Z,94.30
2024-01-06T10:21:23.162Z,93.07
2024-01-06T10:23:51.609Z,92.61
2024-01-06T10:26:21.424Z,92.65
2024-01-06T10:28:50.501Z,92.62
2024-01-06T10:31:19.003Z,93.04
2024-01-06T10:33:47.609Z,93.65
2024-01-06T10:36:16.888Z,92.95
2024-01-06T10:38:46.269Z,92.79
2024-01-06T10:41:15.687Z,93.21
2024-01-06T10:43:45.223Z,93.26
2024-01-06T10:46:13.666Z,94.25
2024-01-06T10:48:44.731Z,94.21
2024-01-06T10:51:14.689Z,94.67
2024-01-06T10:53:42.806Z,92.37
2024-01-06T10:56:11.776Z,90.21
2024-01-06T10:58:44.750Z,88.76
2024-01-06T11:01:16.572Z,90.24
2024-01-06T11:03:50.695Z,90.66
2024-01-06T11:06:20.010Z,90.91
2024-01-06T11:09:00.947Z,90.47
2024-01-06T11:11:31.176Z,89.24
2024-01-06T11:14:26.908Z,88.74
2024-01-06T11:19:46.852Z,88.39
2024-01-06T11:22:21.948Z,88.48
2024-01-06T11:24:50.975Z,87.27
2024-01-06T11:27:24.151Z,85.46
2024-01-06T11:29:53.827Z,85.97
2024-01-06T11:32:28.254Z,84.63
2024-01-06T11:35:06.436Z,84.90
2024-01-06T11:37:39.064Z,85.08
2024-01-06T11:40:19.757Z,84.68
2024-01-06T11:42:48.414Z,84.74
2024-01-06T11:45:17.080Z,84.60
2024-01-06T11:47:50.629Z,84.49
2024-01-06T11:50:19.077Z,84.47
2024-01-06T11:52:47.327Z,82.99
2024-01-06T11:55:16.027Z,83.04
2024-01-06T11:57:43.642Z,82.64
2024-01-06T12:00:12.885Z,83.86
2024-01-06T12:02:40.642Z,83.09
2024-01-06T12:05:15.224Z,81.65
2024-01-06T12:07:43.480Z,82.46
2024-01-06T12:10:12.088Z,81.44
2024-01-06T12:12:40.302Z,80.15
2024-01-06T12:15:13.365Z,81.54
2024-01-06T12:17:42.789Z,82.67
2024-01-06T12:20:13.445Z,82.81
2024-01-06T12:22:41.290Z,82.40
2024-01-06T12:25:11.164Z,82.22
2024-01-06T12:27:44.539Z,81.76
2024-01-06T12:30:17.795Z,83.35
2024-01-06T12:32:46.750Z,83.89
2024-01-06T12:35:16.354Z,82.38
2024-01-06T12:37:47.376Z,81.96
2024-01-06T12:40:15.815Z,81.46
2024-01-06T12:42:43.594Z,82.00
2024-01-06T12:45:12.171Z,83.93
2024-01-06T12:47:40.421Z,83.39
2024-01-06T12:50:09.471Z,83.60
2024-01-06T12:52:40.006Z,83.79
2024-01-06T12:55:08.866Z,83.23
2024-01-06T12:57:37.334Z,82.83
2024-01-06T13:00:07.059Z,83.71
2024-01-06T13:02:34.696Z,82.48
2024-01-06T13:05:02.560Z,82.71
2024-01-06T13:07:29.408Z,83.38
2024-01-06T13:09:58.714Z,82.76
2024-01-06T13:12:26.356Z,82.79
2024-01-06T13:14:54.014Z,82.50
2024-01-06T13:17:21.724Z,82.51
2024-01-06T13:19:50.482Z,80.77
2024-01-06T13:22:21.467Z,82.75
2024-01-06T13:24:51.713Z,83.00
2024-01-06T13:27:22.577Z,82.83
2024-01-06T13:29:50.824Z,83.14
2024-01-06T13:32:20.173Z,82.56
2024-01-06T13:34:48.234Z,82.73
2024-01-06T13:37:16.579Z,82.59
2024-01-06T13:39:44.469Z,82.36
2024-01-06T13:42:12.217Z,82.61
2024-01-06T13:44:41.235Z,82.11
2024-01-06T13:47:09.007Z,82.84
2024-01-06T13:49:36.930Z,82.81
2024-01-06T13:52:04.937Z,82.98
2024-01-06T13:54:32.851Z,82.62
2024-01-06T13:57:00.628Z,83.05
2024-01-06T13:59:28.493Z,82.98
2024-01-06T14:01:57.647Z,82.42
2024-01-06T14:04:25.662Z,81.94
2024-01-06T14:06:57.122Z,83.07
2024-01-06T14:09:27.111Z,84.28
2024-01-06T14:11:55.515Z,83.93
2024-01-06T14:14:23.331Z,83.91
2024-01-06T14:16:51.599Z,83.73
2024-01-06T14:19:20.626Z,84.55
2024-01-06T14:21:48.410Z,84.81
2024-01-06T14:24:16.043Z,85.37
2024-01-06T14:26:43.787Z,86.02
2024-01-06T14:29:12.383Z,85.56
2024-01-06T14:31:40.206Z,85.83
2024-01-06T14:34:08.175Z,86.85
2024-01-06T14:36:37.510Z,87.05
2024-01-06T14:39:07.621Z,88.10
2024-01-06T14:41:35.310Z,86.94
2024-01-06T14:44:03.000Z,84.63
2024-01-06T14:46:32.403Z,82.98
2024-01-06T14:49:00.198Z,81.02
2024-01-06T14:51:28.164Z,83.00
2024-01-06T14:53:58.102Z,80.56
2024-01-06T14:56:27.152Z,80.93
2024-01-06T14:58:55.068Z,80.83
2024-01-06T15:01:22.815Z,80.57
2024-01-06T15:03:50.650Z,80.99
2024-01-06T15:06:19.005Z,81.08
2024-01-06T15:08:46.924Z,81.76
2024-01-06T15:11:16.397Z,80.06
2024-01-06T15:13:44.432Z,79.64
2024-01-06T15:16:12.217Z,80.43
2024-01-06T15:18:40.181Z,80.99
2024-01-06T15:21:11.838Z,80.43
2024-01-06T15:23:41.036Z,80.91
2024-01-06T15:26:08.705Z,80.47
2024-01-06T15:28:37.729Z,80.59
2024-01-06T15:31:05.725Z,80.61
2024-01-06T15:33:33.704Z,81.37
2024-01-06T15:36:02.384Z,81.56
2024-01-06T15:38:30.119Z,81.71
2024-01-06T15:40:57.770Z,81.84
2024-01-06T15:43:25.375Z,81.71
2024-01-06T15:45:54.976Z,81.26
2024-01-06T15:48:25.542Z,81.64
2024-01-06T15:50:54.046Z,80.67
2024-01-06T15:53:21.694Z,80.24
2024-01-06T15:55:49.406Z,80.69
2024-01-06T15:58:17.703Z,80.31
2024-01-06T16:00:45.670Z,79.69
2024-01-06T16:03:14.795Z,79.65
2024-01-06T16:05:43.873Z,78.99
2024-01-06T16:08:11.734Z,79.86
2024-01-06T16:10:39.414Z,80.30
2024-01-06T16:13:07.067Z,78.88
2024-01-06T16:15:34.737Z,79.06
2024-01-06T16:18:02.617Z,79.19
2024-01-06T16:20:32.584Z,78.99
2024-01-06T16:23:00.429Z,78.16
2024-01-06T16:25:28.092Z,78.41
2024-01-06T16:27:56.099Z,78.96
2024-01-06T16:30:24.013Z,79.70
2024-01-06T16:32:52.103Z,79.28
2024-01-06T16:35:19.985Z,78.63
2024-01-06T16:37:49.634Z,78.49
2024-01-06T16:40:17.239Z,79.31
2024-01-06T16:42:45.197Z,79.15
2024-01-06T16:45:14.377Z,80.56
2024-01-06T16:47:42.461Z,80.91
2024-01-06T16:50:10.876Z,80.30
2024-01-06T16:52:39.192Z,78.68
2024-01-06T16:55:09.574Z,78.12
2024-01-06T16:57:37.485Z,77.63
2024-01-06T17:00:06.851Z,78.13
2024-01-06T17:02:34.527Z,78.02
2024-01-06T17:05:02.569Z,77.46
2024-01-06T17:07:30.373Z,78.58
2024-01-06T17:10:00.286Z,79.45
2024-01-06T17:12:29.598Z,79.81
2024-01-06T17:14:57.253Z,79.53
2024-01-06T17:17:25.058Z,79.08
2024-01-06T17:19:54.417Z,78.52
2024-01-06T17:22:23.254Z,78.38
2024-01-06T17:24:52.863Z,78.88
2024-01-06T17:27:20.551Z,79.51
2024-01-06T17:29:50.744Z,80.42
2024-01-06T17:32:18.466Z,80.87
2024-01-06T17:34:46.294Z,81.44
2024-01-06T17:37:14.312Z,80.78
2024-01-06T17:39:42.764Z,81.38
2024-01-06T17:42:11.008Z,82.28
2024-01-06T17:44:45.496Z,81.36
2024-01-06T17:47:16.166Z,81.87
2024-01-06T17:49:43.894Z,81.56
2024-01-06T17:52:12.466Z,82.42
2024-01-06T17:54:40.509Z,82.64
2024-01-06T17:57:08.288Z,82.58
2024-01-06T17:59:35.886Z,82.49
2024-01-06T18:02:03.632Z,84.26
2024-01-06T18:04:32.705Z,82.03
2024-01-06T18:07:00.911Z,81.96
2024-01-06T18:09:29.135Z,82.90
2024-01-06T18:11:56.811Z,82.87
2024-01-06T18:14:24.833Z,83.31
2024-01-06T18:16:52.498Z,83.65
2024-01-06T18:19:20.452Z,83.05
2024-01-06T18:21:49.635Z,82.90
2024-01-06T18:24:17.289Z,83.01
2024-01-06T18:26:46.083Z,82.41
2024-01-06T18:29:19.025Z,83.10
2024-01-06T18:31:47.129Z,82.59
2024-01-06T18:34:15.123Z,82.32
2024-01-06T18:36:42.853Z,82.66
2024-01-06T18:39:11.876Z,84.30
2024-01-06T18:41:40.868Z,83.07
2024-01-06T18:44:10.933Z,83.67
2024-01-06T18:46:39.117Z,83.50
2024-01-06T18:49:07.785Z,84.32
2024-01-06T18:51:38.410Z,86.22
2024-01-06T18:54:06.387Z,88.36
2024-01-06T18:56:35.576Z,89.00
2024-01-06T18:59:03.441Z,90.55
2024-01-06T19:01:32.115Z,90.82
2024-01-06T19:04:00.264Z,90.02
2024-01-06T19:06:28.150Z,88.26
2024-01-06T19:08:55.793Z,87.24
2024-01-06T19:11:23.481Z,88.63
2024-01-06T19:13:52.546Z,89.70
2024-01-06T19:16:20.695Z,90.35
2024-01-06T19:18:48.517Z,90.26
2024-01-06T19:21:16.621Z,88.08
2024-01-06T19:23:45.680Z,87.70
2024-01-06T19:26:14.647Z,88.09
2024-01-06T19:28:42.329Z,87.29
2024-01-06T19:31:11.685Z,88.49
2024-01-06T19:33:39.621Z,87.97
2024-01-06T19:36:07.888Z,88.49
2024-01-06T19:38:36.481Z,88.18
2024-01-06T19:41:04.264Z,87.45
2024-01-06T19:43:33.153Z,87.22
2024-01-06T19:46:03.341Z,87.60
2024-01-06T19:48:32.784Z,88.47
2024-01-06T19:51:01.113Z,90.37
2024-01-06T19:53:29.935Z,89.67
2024-01-06T19:56:02.787Z,87.24
2024-01-06T19:58:30.563Z,88.37
2024-01-06T20:00:59.166Z,88.66
2024-01-06T20:03:27.403Z,88.22
2024-01-06T20:05:57.519Z,87.89
2024-01-06T20:08:25.519Z,88.80
2024-01-06T20:10:53.188Z,89.23
2024-01-06T20:13:21.339Z,89.27
2024-01-06T20:15:49.214Z,88.44
2024-01-06T20:18:17.736Z,87.46
2024-01-06T20:20:45.775Z,86.91
2024-01-06T20:23:14.939Z,87.89
2024-01-06T20:25:44.580Z,88.51
2024-01-06T20:28:13.465Z,87.50
2024-01-06T20:30:43.012Z,87.53
2024-01-06T20:33:11.453Z,88.76
2024-01-06T20:35:39.251Z,89.63
2024-01-06T20:38:07.496Z,89.75
2024-01-06T20:40:36.479Z,88.65
2024-01-06T20:43:04.448Z,89.14
2024-01-06T20:45:32.413Z,88.24
2024-01-06T20:48:00.257Z,87.72
2024-01-06T20:50:28.106Z,88.44
2024-01-06T20:52:55.857Z,88.29
2024-01-06T20:55:23.673Z,88.55
2024-01-06T20:57:53.764Z,90.05
2024-01-06T21:00:22.978Z,89.70
2024-01-06T21:02:51.209Z,90.23
2024-01-06T21:05:18.956Z,90.07
2024-01-06T21:07:48.660Z,90.01
2024-01-06T21:10:16.483Z,89.79
2024-01-06T21:12:44.373Z,90.26
2024-01-06T21:15:14.902Z,91.09
2024-01-06T21:17:42.934Z,90.37
2024-01-06T21:20:11.397Z,90.30
2024-01-06T21:22:39.218Z,90.22
2024-01-06T21:25:07.679Z,89.73
2024-01-06T21:27:36.041Z,90.45
2024-01-06T21:30:05.867Z,90.50
2024-01-06T21:32:35.432Z,91.18
2024-01-06T21:35:04.889Z,90.61
2024-01-06T21:37:33.466Z,90.41
2024-01-06T21:40:06.200Z,91.41
2024-01-06T21:42:34.841Z,91.87
2024-01-06T21:45:02.668Z,91.55
2024-01-06T21:47:30.465Z,91.62
2024-01-06T21:50:00.313Z,90.90
2024-01-06T21:52:27.938Z,91.03
2024-01-06T21:54:55.676Z,91.13
2024-01-06T21:57:23.394Z,91.45
2024-01-06T21:59:51.235Z,90.28
2024-01-06T22:02:19.043Z,90.61
2024-01-06T22:04:46.809Z,91.21
2024-01-06T22:07:15.783Z,90.95
2024-01-06T22:09:43.780Z,91.50
2024-01-06T22:12:14.081Z,92.15
2024-01-06T22:14:42.678Z,92.36
2024-01-06T22:17:10.437Z,92.64
2024-01-06T22:19:40.261Z,93.29
2024-01-06T22:22:08.379Z,94.05
2024-01-06T22:24:37.650Z,94.41
2024-01-06T22:27:06.476Z,95.08
2024-01-06T22:29:34.131Z,95.76
2024-01-06T22:32:01.767Z,96.15
2024-01-06T22:34:29.807Z,97.49
2024-01-06T22:36:58.585Z,97.98
2024-01-06T22:39:27.774Z,98.72
2024-01-06T22:41:56.958Z,98.76
2024-01-06T22:44:24.745Z,98.73
2024-01-06T22:46:51.471Z,99.75
2024-01-06T22:49:20.145Z,99.84
2024-01-06T22:51:48.176Z,100.00
2024-01-06T22:54:16.109Z,100.00
2024-01-06T22:56:44.241Z,99.92
2024-01-06T22:59:13.408Z,100.00
2024-01-06T23:01:41.233Z,100.00
2024-01-06T23:04:09.490Z,100.00
2024-01-06T23:06:37.588Z,100.00
2024-01-06T23:09:07.884Z,100.00
2024-01-06T23:11:35.903Z,100.00
2024-01-06T23:14:03.765Z,99.19
2024-01-06T23:16:32.841Z,98.12
2024-01-06T23:19:01.017Z,97.74
2024-01-06T23:21:28.910Z,97.37
2024-01-06T23:23:57.677Z,97.77
2024-01-06T23:26:25.402Z,97.18
2024-01-06T23:28:53.006Z,97.22
2024-01-06T23:31:21.062Z,96.68
2024-01-06T23:33:50.240Z,96.44
2024-01-06T23:36:17.991Z,96.66
2024-01-06T23:38:45.621Z,97.54
2024-01-06T23:41:14.858Z,97.36
2024-01-06T23:43:42.564Z,97.17
2024-01-06T23:46:10.374Z,96.37
2024-01-06T23:48:38.223Z,95.49
2024-01-06T23:51:07.294Z,95.20
2024-01-06T23:53:34.948Z,95.21
2024-01-06T23:56:03.515Z,97.36
2024-01-06T23:58:31.360Z,96.27
